Luminous Kobe-2 — JJ3868 — position and weather

sailwx.info

Track history (hours):
 
Tides and Currents Weather Stations Pressure Air Temp Water Temp Dewpoint Dewpoint Depression Visibility Wind Speed Wind Dir Waves Ship Positions

Luminous Kobe-2

Last reported at 2017-Mar-27 06:33 UTC. Time now 2017-Mar-27 06:44 UTC.
Position N 34°41' E 135°11'.

Length 105 m; draft 4.5 m.

Type: Passenger vessel. MMSI: 431000469.

Date/timePositionNaut miles runAvg speedWind from/ knotsBaromVisibWave heightAir tempDewpointWater temp
2017-Mar-27 06:33N 34°41' E 135°11'0 0.0
2017-Mar-27 05:21N 34°41' E 135°11'3 3.2
2017-Mar-27 04:33N 34°38' E 135°11'2 1.9
2017-Mar-27 03:33N 34°37' E 135°13'4 2.7
2017-Mar-27 02:10N 34°41' E 135°11'0 0.0
2017-Mar-27 01:28N 34°41' E 135°11'0 0.0
2017-Mar-27 00:22N 34°41' E 135°11'0 0.0
2017-Mar-26 23:28N 34°41' E 135°11'0 0.0
2017-Mar-26 22:28N 34°41' E 135°11'0 0.0
2017-Mar-26 21:28N 34°41' E 135°11'0 0.0
2017-Mar-26 20:28N 34°41' E 135°11'0 0.0
2017-Mar-26 19:28N 34°41' E 135°11'0 0.0
2017-Mar-26 18:28N 34°41' E 135°11'0 0.0
2017-Mar-26 17:28N 34°41' E 135°11'0 0.0
2017-Mar-26 16:28N 34°41' E 135°11'0 0.0
2017-Mar-26 15:22N 34°41' E 135°11'0 0.0
2017-Mar-26 14:28N 34°41' E 135°11'0 0.0
2017-Mar-26 13:22N 34°41' E 135°11'0 0.0
2017-Mar-26 12:28N 34°41' E 135°11'6 6.5
2017-Mar-26 11:33N 34°36' E 135°07'1 0.9
2017-Mar-26 10:33N 34°36' E 135°06'7 6.2
2017-Mar-26 09:30N 34°41' E 135°11'2 1.9
2017-Mar-26 08:33N 34°39' E 135°11'2 2.3
2017-Mar-26 07:33N 34°37' E 135°13'4 3.6
2017-Mar-26 06:27N 34°41' E 135°11'0 0.0
2017-Mar-26 05:27N 34°41' E 135°11'2 2.3
2017-Mar-26 04:33N 34°39' E 135°11'2 2.3
2017-Mar-26 03:33N 34°37' E 135°13'4 3.4
2017-Mar-26 02:22N 34°41' E 135°11'0 0.0
2017-Mar-26 01:28N 34°41' E 135°11'0 0.0
2017-Mar-26 00:28N 34°41' E 135°11'0 0.0
2017-Mar-25 23:22N 34°41' E 135°11'0 0.0
2017-Mar-25 22:28N 34°41' E 135°11'0 0.0
2017-Mar-25 21:28N 34°41' E 135°11'0 0.0
2017-Mar-25 20:28N 34°41' E 135°11'0 0.0
2017-Mar-25 19:28N 34°41' E 135°11'0 0.0
2017-Mar-25 18:28N 34°41' E 135°11'0 0.0
2017-Mar-25 17:28N 34°41' E 135°11'0 0.0
2017-Mar-25 16:28N 34°41' E 135°11'0 0.0
2017-Mar-25 15:28N 34°41' E 135°11'0 0.0
2017-Mar-25 14:28N 34°41' E 135°11'0 0.0
2017-Mar-25 13:28N 34°41' E 135°11'0 0.0
2017-Mar-25 12:28N 34°41' E 135°11'6 6.8
2017-Mar-25 11:33N 34°36' E 135°06'1 0.6
2017-Mar-25 10:33N 34°37' E 135°06'6 5.5
2017-Mar-25 09:31N 34°41' E 135°11'2 1.7
2017-Mar-25 08:33N 34°39' E 135°11'2 1.9
2017-Mar-25 07:34N 34°38' E 135°12'3 2.9
2017-Mar-25 06:22N 34°41' E 135°11'0 0.0
2017-Mar-25 05:28N 34°41' E 135°11'2 2.4
2017-Mar-25 04:33N 34°39' E 135°11'2 2.3
2017-Mar-25 03:33N 34°37' E 135°13'4 3.9
2017-Mar-25 02:32N 34°41' E 135°11'0 0.0
2017-Mar-25 01:32N 34°41' E 135°11'0 0.0
2017-Mar-25 00:32N 34°41' E 135°11'0 0.0
2017-Mar-24 23:26N 34°41' E 135°11'0 0.0
2017-Mar-24 22:32N 34°41' E 135°11'0 0.0
2017-Mar-24 21:32N 34°41' E 135°11'0 0.0
2017-Mar-24 20:32N 34°41' E 135°11'0 0.0
2017-Mar-24 19:32N 34°41' E 135°11'0 0.0
2017-Mar-24 18:32N 34°41' E 135°11'0 0.0
2017-Mar-24 17:32N 34°41' E 135°11'0 0.0
2017-Mar-24 16:32N 34°41' E 135°11'0 0.0
2017-Mar-24 15:32N 34°41' E 135°11'0 0.0
2017-Mar-24 14:32N 34°41' E 135°11'0 0.0
2017-Mar-24 13:32N 34°41' E 135°11'0 0.0
2017-Mar-24 12:32N 34°41' E 135°11'6 6.1
2017-Mar-24 11:33N 34°36' E 135°07'1 1.0
2017-Mar-24 10:33N 34°37' E 135°06'6 5.9
2017-Mar-24 09:32N 34°41' E 135°11'5 4.9
2017-Mar-24 08:33N 34°37' E 135°08'5 4.5
2017-Mar-24 07:30N 34°41' E 135°11'0 0.0
2017-Mar-24 06:30N 34°41' E 135°11'0 0.0
2017-Mar-24 05:30N 34°41' E 135°11'2 2.2
2017-Mar-24 04:33N 34°39' E 135°11'2 2.2
2017-Mar-24 03:33N 34°37' E 135°13'4 3.7
2017-Mar-24 02:29N 34°41' E 135°11'0 0.0
2017-Mar-24 01:23N 34°41' E 135°11'0 0.0
2017-Mar-24 00:23N 34°41' E 135°11'0 0.0
2017-Mar-23 23:29N 34°41' E 135°11'0 0.0
2017-Mar-23 22:29N 34°41' E 135°11'0 0.0
2017-Mar-23 21:29N 34°41' E 135°11'0 0.0
2017-Mar-23 20:23N 34°41' E 135°11'0 0.0
2017-Mar-23 19:29N 34°41' E 135°11'0 0.0
2017-Mar-23 18:29N 34°41' E 135°11'0 0.0
2017-Mar-23 17:29N 34°41' E 135°11'0 0.0
2017-Mar-23 16:29N 34°41' E 135°11'0 0.0
2017-Mar-23 15:17N 34°41' E 135°11'0 0.0
2017-Mar-23 14:23N 34°41' E 135°11'0 0.0
2017-Mar-23 13:29N 34°41' E 135°11'0 0.0
2017-Mar-23 12:29N 34°41' E 135°11'6 6.5
2017-Mar-23 11:34N 34°36' E 135°07'1 0.9
2017-Mar-23 10:33N 34°36' E 135°06'6 6.1
2017-Mar-23 09:33N 34°41' E 135°11'5 4.7
2017-Mar-23 08:33N 34°37' E 135°08'5 4.7
2017-Mar-23 07:33N 34°41' E 135°11'0 0.0
2017-Mar-23 06:20N 34°41' E 135°11'0 0.0
2017-Mar-23 05:32N 34°41' E 135°11'2 1.9
2017-Mar-23 04:33N 34°39' E 135°11'2 2.1
2017-Mar-23 03:33N 34°37' E 135°13'4 2.7
2017-Mar-23 02:13N 34°41' E 135°11'0 0.0
2017-Mar-23 01:31N 34°41' E 135°11'0 0.0
2017-Mar-23 00:31N 34°41' E 135°11'0 0.0
2017-Mar-22 23:25N 34°41' E 135°11'0 0.0
2017-Mar-22 22:19N 34°41' E 135°11'0 0.0
2017-Mar-22 21:31N 34°41' E 135°11'0 0.0
2017-Mar-22 20:31N 34°41' E 135°11'0 0.0
2017-Mar-22 19:31N 34°41' E 135°11'0 0.0
2017-Mar-22 18:31N 34°41' E 135°11'0 0.0
2017-Mar-22 17:31N 34°41' E 135°11'0 0.0
2017-Mar-22 16:25N 34°41' E 135°11'0 0.0
2017-Mar-22 15:31N 34°41' E 135°11'0 0.0
2017-Mar-22 14:31N 34°41' E 135°11'0 0.0
2017-Mar-22 13:31N 34°41' E 135°11'0 0.0
2017-Mar-22 12:31N 34°41' E 135°11'6 6.4
2017-Mar-22 11:33N 34°36' E 135°07'1 1.1
2017-Mar-22 10:33N 34°36' E 135°06'6 6.0
2017-Mar-22 09:29N 34°41' E 135°11'5 5.2
2017-Mar-22 08:34N 34°37' E 135°07'5 4.8
2017-Mar-22 07:33N 34°41' E 135°11'0 0.0
2017-Mar-22 06:27N 34°41' E 135°11'0 0.0
2017-Mar-22 05:33N 34°41' E 135°11'2 2.4
2017-Mar-22 04:33N 34°38' E 135°11'2 2.5
2017-Mar-22 03:33N 34°37' E 135°13'4 3.6
2017-Mar-22 02:23N 34°41' E 135°11'0 0.0
2017-Mar-22 01:29N 34°41' E 135°11'0 0.0
2017-Mar-22 00:29N 34°41' E 135°11'0 0.0
2017-Mar-21 23:29N 34°41' E 135°11'0 0.0
2017-Mar-21 22:23N 34°41' E 135°11'0 0.0
2017-Mar-21 21:29N 34°41' E 135°11'0 0.0
2017-Mar-21 20:23N 34°41' E 135°11'0 0.0
2017-Mar-21 19:29N 34°41' E 135°11'0 0.0
2017-Mar-21 18:29N 34°41' E 135°11'0 0.0
2017-Mar-21 17:29N 34°41' E 135°11'0 0.0
2017-Mar-21 16:29N 34°41' E 135°11'0 0.0
2017-Mar-21 15:29N 34°41' E 135°11'0 0.0
2017-Mar-21 14:29N 34°41' E 135°11'0 0.0
2017-Mar-21 13:29N 34°41' E 135°11'0 0.0
2017-Mar-21 12:23N 34°41' E 135°11'7 8.2
2017-Mar-21 11:33N 34°35' E 135°06'1 1.4
2017-Mar-21 10:33N 34°37' E 135°06'6 5.5
2017-Mar-21 09:30N 34°41' E 135°11'5 5.3
2017-Mar-21 08:33N 34°37' E 135°08'5 4.3
2017-Mar-21 07:24N 34°41' E 135°11'0 0.0
2017-Mar-21 06:30N 34°41' E 135°11'0 0.0
2017-Mar-21 05:30N 34°41' E 135°11'2 2.4
2017-Mar-21 04:33N 34°39' E 135°11'2 2.0
2017-Mar-21 03:33N 34°37' E 135°13'4 3.7
2017-Mar-21 02:32N 34°41' E 135°11'0 0.0
2017-Mar-21 01:32N 34°41' E 135°11'0 0.0
2017-Mar-21 00:32N 34°41' E 135°11'0 0.0
2017-Mar-20 23:32N 34°41' E 135°11'0 0.0
2017-Mar-20 22:32N 34°41' E 135°11'0 0.0
2017-Mar-20 21:32N 34°41' E 135°11'0 0.0
2017-Mar-20 20:32N 34°41' E 135°11'0 0.0
2017-Mar-20 19:32N 34°41' E 135°11'0 0.0
2017-Mar-20 18:32N 34°41' E 135°11'0 0.0
2017-Mar-20 17:26N 34°41' E 135°11'0 0.0
2017-Mar-20 16:14N 34°41' E 135°11'0 0.0
2017-Mar-20 15:32N 34°41' E 135°11'0 0.0
2017-Mar-20 14:32N 34°41' E 135°11'0 0.0
2017-Mar-20 13:32N 34°41' E 135°11'0 0.0
2017-Mar-20 12:32N 34°41' E 135°11'6 6.5
2017-Mar-20 11:33N 34°36' E 135°07'1 1.2
2017-Mar-20 10:33N 34°37' E 135°07'5 4.7
2017-Mar-20 09:25N 34°41' E 135°11'2 2.4
2017-Mar-20 08:33N 34°39' E 135°11'2 1.9
2017-Mar-20 07:33N 34°37' E 135°13'4 3.5
2017-Mar-20 06:30N 34°41' E 135°11'0 0.0
2017-Mar-20 05:30N 34°41' E 135°11'2 2.2
2017-Mar-20 04:33N 34°39' E 135°11'2 2.1
2017-Mar-20 03:34N 34°37' E 135°13'4 3.7
2017-Mar-20 02:33N 34°41' E 135°11'0 0.0
2017-Mar-20 01:33N 34°41' E 135°11'0 0.0
2017-Mar-20 00:21N 34°41' E 135°11'0 0.0
2017-Mar-19 23:27N 34°41' E 135°11'0 0.0
2017-Mar-19 22:27N 34°41' E 135°11'0 0.0
2017-Mar-19 21:33N 34°41' E 135°11'0 0.0
2017-Mar-19 20:27N 34°41' E 135°11'0 0.0
2017-Mar-19 19:33N 34°41' E 135°11'0 0.0
2017-Mar-19 18:33N 34°41' E 135°11'0 0.0
2017-Mar-19 17:33N 34°41' E 135°11'0 0.0
2017-Mar-19 16:33N 34°41' E 135°11'0 0.0
2017-Mar-19 15:21N 34°41' E 135°11'0 0.0
2017-Mar-19 14:33N 34°41' E 135°11'0 0.0
2017-Mar-19 13:27N 34°41' E 135°11'0 0.0
2017-Mar-19 12:27N 34°41' E 135°11'6 6.7
2017-Mar-19 11:33N 34°36' E 135°07'1 1.1
2017-Mar-19 10:34N 34°37' E 135°06'6 5.6
2017-Mar-19 09:31N 34°41' E 135°11'2 1.9
2017-Mar-19 08:34N 34°39' E 135°11'2 2.1
2017-Mar-19 07:33N 34°37' E 135°13'4 3.5
2017-Mar-19 06:32N 34°41' E 135°11'0 0.0
2017-Mar-19 05:26N 34°41' E 135°11'2 2.3
2017-Mar-19 04:33N 34°39' E 135°11'2 2.0
2017-Mar-19 03:33N 34°37' E 135°13'4 3.6
2017-Mar-19 02:33N 34°41' E 135°11'0 0.0
2017-Mar-19 01:33N 34°41' E 135°11'0 0.0
2017-Mar-19 00:33N 34°41' E 135°11'0 0.0
2017-Mar-18 23:33N 34°41' E 135°11'0 0.0
2017-Mar-18 22:33N 34°41' E 135°11'0 0.0
2017-Mar-18 21:33N 34°41' E 135°11'0 0.0
2017-Mar-18 20:33N 34°41' E 135°11'0 0.0
2017-Mar-18 19:09N 34°41' E 135°11'0 0.0
2017-Mar-18 18:33N 34°41' E 135°11'0 0.0
2017-Mar-18 17:33N 34°41' E 135°11'0 0.0
2017-Mar-18 16:27N 34°41' E 135°11'0 0.0
2017-Mar-18 15:15N 34°41' E 135°11'0 0.0
2017-Mar-18 14:33N 34°41' E 135°11'0 0.0
2017-Mar-18 13:33N 34°41' E 135°11'0 0.0
2017-Mar-18 12:27N 34°41' E 135°11'7 7.9
2017-Mar-18 11:34N 34°35' E 135°06'2 2.2
2017-Mar-18 10:34N 34°37' E 135°07'5 4.3
2017-Mar-18 09:23N 34°41' E 135°11'2 2.5
2017-Mar-18 08:33N 34°39' E 135°11'2 1.9
2017-Mar-18 07:33N 34°38' E 135°13'4 3.4
2017-Mar-18 06:32N 34°41' E 135°11'0 0.0
2017-Mar-18 05:32N 34°41' E 135°11'2 2.2
2017-Mar-18 04:34N 34°39' E 135°11'2 1.8
2017-Mar-18 03:33N 34°37' E 135°13'4 2.9
2017-Mar-18 02:18N 34°41' E 135°11'0 0.0
2017-Mar-18 01:30N 34°41' E 135°11'0 0.0
2017-Mar-18 00:30N 34°41' E 135°11'0 0.0
2017-Mar-17 23:30N 34°41' E 135°11'0 0.0
2017-Mar-17 22:30N 34°41' E 135°11'0 0.0
2017-Mar-17 21:30N 34°41' E 135°11'0 0.0
2017-Mar-17 20:06N 34°41' E 135°11'0 0.0
2017-Mar-17 19:30N 34°41' E 135°11'0 0.0
2017-Mar-17 18:30N 34°41' E 135°11'0 0.0
2017-Mar-17 17:24N 34°41' E 135°11'0 0.0
2017-Mar-17 16:30N 34°41' E 135°11'0 0.0
2017-Mar-17 15:30N 34°41' E 135°11'0 0.0
2017-Mar-17 14:30N 34°41' E 135°11'0 0.0
2017-Mar-17 13:30N 34°41' E 135°11'0 0.0
2017-Mar-17 12:24N 34°41' E 135°11'6 6.7
2017-Mar-17 11:33N 34°36' E 135°07'1 1.5
2017-Mar-17 10:33N 34°37' E 135°06'6 5.7
2017-Mar-17 09:30N 34°41' E 135°11'5 4.9
2017-Mar-17 08:33N 34°38' E 135°08'5 3.9
2017-Mar-17 07:23N 34°41' E 135°11'  
Track history (hours):
 
Tides and Currents Weather Stations Pressure Air Temp Water Temp Dewpoint Dewpoint Depression Visibility Wind Speed Wind Dir Waves Ship Positions

Luminous Kobe-2

Last reported at 2017-Mar-27 06:33 UTC. Time now 2017-Mar-27 06:44 UTC.
Position N 34°41' E 135°11'.

Length 105 m; draft 4.5 m.

Type: Passenger vessel. MMSI: 431000469.

Date/timePositionNaut miles runAvg speedWind from/ knotsBaromVisibWave heightAir tempDewpointWater temp
2017-Mar-27 06:33N 34°41' E 135°11'0 0.0
2017-Mar-27 05:21N 34°41' E 135°11'3 3.2
2017-Mar-27 04:33N 34°38' E 135°11'2 1.9
2017-Mar-27 03:33N 34°37' E 135°13'4 2.7
2017-Mar-27 02:10N 34°41' E 135°11'0 0.0
2017-Mar-27 01:28N 34°41' E 135°11'0 0.0
2017-Mar-27 00:22N 34°41' E 135°11'0 0.0
2017-Mar-26 23:28N 34°41' E 135°11'0 0.0
2017-Mar-26 22:28N 34°41' E 135°11'0 0.0
2017-Mar-26 21:28N 34°41' E 135°11'0 0.0
2017-Mar-26 20:28N 34°41' E 135°11'0 0.0
2017-Mar-26 19:28N 34°41' E 135°11'0 0.0
2017-Mar-26 18:28N 34°41' E 135°11'0 0.0
2017-Mar-26 17:28N 34°41' E 135°11'0 0.0
2017-Mar-26 16:28N 34°41' E 135°11'0 0.0
2017-Mar-26 15:22N 34°41' E 135°11'0 0.0
2017-Mar-26 14:28N 34°41' E 135°11'0 0.0
2017-Mar-26 13:22N 34°41' E 135°11'0 0.0
2017-Mar-26 12:28N 34°41' E 135°11'6 6.5
2017-Mar-26 11:33N 34°36' E 135°07'1 0.9
2017-Mar-26 10:33N 34°36' E 135°06'7 6.2
2017-Mar-26 09:30N 34°41' E 135°11'2 1.9
2017-Mar-26 08:33N 34°39' E 135°11'2 2.3
2017-Mar-26 07:33N 34°37' E 135°13'4 3.6
2017-Mar-26 06:27N 34°41' E 135°11'0 0.0
2017-Mar-26 05:27N 34°41' E 135°11'2 2.3
2017-Mar-26 04:33N 34°39' E 135°11'2 2.3
2017-Mar-26 03:33N 34°37' E 135°13'4 3.4
2017-Mar-26 02:22N 34°41' E 135°11'0 0.0
2017-Mar-26 01:28N 34°41' E 135°11'0 0.0
2017-Mar-26 00:28N 34°41' E 135°11'0 0.0
2017-Mar-25 23:22N 34°41' E 135°11'0 0.0
2017-Mar-25 22:28N 34°41' E 135°11'0 0.0
2017-Mar-25 21:28N 34°41' E 135°11'0 0.0
2017-Mar-25 20:28N 34°41' E 135°11'0 0.0
2017-Mar-25 19:28N 34°41' E 135°11'0 0.0
2017-Mar-25 18:28N 34°41' E 135°11'0 0.0
2017-Mar-25 17:28N 34°41' E 135°11'0 0.0
2017-Mar-25 16:28N 34°41' E 135°11'0 0.0
2017-Mar-25 15:28N 34°41' E 135°11'0 0.0
2017-Mar-25 14:28N 34°41' E 135°11'0 0.0
2017-Mar-25 13:28N 34°41' E 135°11'0 0.0
2017-Mar-25 12:28N 34°41' E 135°11'6 6.8
2017-Mar-25 11:33N 34°36' E 135°06'1 0.6
2017-Mar-25 10:33N 34°37' E 135°06'6 5.5
2017-Mar-25 09:31N 34°41' E 135°11'2 1.7
2017-Mar-25 08:33N 34°39' E 135°11'2 1.9
2017-Mar-25 07:34N 34°38' E 135°12'3 2.9
2017-Mar-25 06:22N 34°41' E 135°11'0 0.0
2017-Mar-25 05:28N 34°41' E 135°11'2 2.4
2017-Mar-25 04:33N 34°39' E 135°11'2 2.3
2017-Mar-25 03:33N 34°37' E 135°13'4 3.9
2017-Mar-25 02:32N 34°41' E 135°11'0 0.0
2017-Mar-25 01:32N 34°41' E 135°11'0 0.0
2017-Mar-25 00:32N 34°41' E 135°11'0 0.0
2017-Mar-24 23:26N 34°41' E 135°11'0 0.0
2017-Mar-24 22:32N 34°41' E 135°11'0 0.0
2017-Mar-24 21:32N 34°41' E 135°11'0 0.0
2017-Mar-24 20:32N 34°41' E 135°11'0 0.0
2017-Mar-24 19:32N 34°41' E 135°11'0 0.0
2017-Mar-24 18:32N 34°41' E 135°11'0 0.0
2017-Mar-24 17:32N 34°41' E 135°11'0 0.0
2017-Mar-24 16:32N 34°41' E 135°11'0 0.0
2017-Mar-24 15:32N 34°41' E 135°11'0 0.0
2017-Mar-24 14:32N 34°41' E 135°11'0 0.0
2017-Mar-24 13:32N 34°41' E 135°11'0 0.0
2017-Mar-24 12:32N 34°41' E 135°11'6 6.1
2017-Mar-24 11:33N 34°36' E 135°07'1 1.0
2017-Mar-24 10:33N 34°37' E 135°06'6 5.9
2017-Mar-24 09:32N 34°41' E 135°11'5 4.9
2017-Mar-24 08:33N 34°37' E 135°08'5 4.5
2017-Mar-24 07:30N 34°41' E 135°11'0 0.0
2017-Mar-24 06:30N 34°41' E 135°11'0 0.0
2017-Mar-24 05:30N 34°41' E 135°11'2 2.2
2017-Mar-24 04:33N 34°39' E 135°11'2 2.2
2017-Mar-24 03:33N 34°37' E 135°13'4 3.7
2017-Mar-24 02:29N 34°41' E 135°11'0 0.0
2017-Mar-24 01:23N 34°41' E 135°11'0 0.0
2017-Mar-24 00:23N 34°41' E 135°11'0 0.0
2017-Mar-23 23:29N 34°41' E 135°11'0 0.0
2017-Mar-23 22:29N 34°41' E 135°11'0 0.0
2017-Mar-23 21:29N 34°41' E 135°11'0 0.0
2017-Mar-23 20:23N 34°41' E 135°11'0 0.0
2017-Mar-23 19:29N 34°41' E 135°11'0 0.0
2017-Mar-23 18:29N 34°41' E 135°11'0 0.0
2017-Mar-23 17:29N 34°41' E 135°11'0 0.0
2017-Mar-23 16:29N 34°41' E 135°11'0 0.0
2017-Mar-23 15:17N 34°41' E 135°11'0 0.0
2017-Mar-23 14:23N 34°41' E 135°11'0 0.0
2017-Mar-23 13:29N 34°41' E 135°11'0 0.0
2017-Mar-23 12:29N 34°41' E 135°11'6 6.5
2017-Mar-23 11:34N 34°36' E 135°07'1 0.9
2017-Mar-23 10:33N 34°36' E 135°06'6 6.1
2017-Mar-23 09:33N 34°41' E 135°11'5 4.7
2017-Mar-23 08:33N 34°37' E 135°08'5 4.7
2017-Mar-23 07:33N 34°41' E 135°11'0 0.0
2017-Mar-23 06:20N 34°41' E 135°11'0 0.0
2017-Mar-23 05:32N 34°41' E 135°11'2 1.9
2017-Mar-23 04:33N 34°39' E 135°11'2 2.1
2017-Mar-23 03:33N 34°37' E 135°13'4 2.7
2017-Mar-23 02:13N 34°41' E 135°11'0 0.0
2017-Mar-23 01:31N 34°41' E 135°11'0 0.0
2017-Mar-23 00:31N 34°41' E 135°11'0 0.0
2017-Mar-22 23:25N 34°41' E 135°11'0 0.0
2017-Mar-22 22:19N 34°41' E 135°11'0 0.0
2017-Mar-22 21:31N 34°41' E 135°11'0 0.0
2017-Mar-22 20:31N 34°41' E 135°11'0 0.0
2017-Mar-22 19:31N 34°41' E 135°11'0 0.0
2017-Mar-22 18:31N 34°41' E 135°11'0 0.0
2017-Mar-22 17:31N 34°41' E 135°11'0 0.0
2017-Mar-22 16:25N 34°41' E 135°11'0 0.0
2017-Mar-22 15:31N 34°41' E 135°11'0 0.0
2017-Mar-22 14:31N 34°41' E 135°11'0 0.0
2017-Mar-22 13:31N 34°41' E 135°11'0 0.0
2017-Mar-22 12:31N 34°41' E 135°11'6 6.4
2017-Mar-22 11:33N 34°36' E 135°07'1 1.1
2017-Mar-22 10:33N 34°36' E 135°06'6 6.0
2017-Mar-22 09:29N 34°41' E 135°11'5 5.2
2017-Mar-22 08:34N 34°37' E 135°07'5 4.8
2017-Mar-22 07:33N 34°41' E 135°11'0 0.0
2017-Mar-22 06:27N 34°41' E 135°11'0 0.0
2017-Mar-22 05:33N 34°41' E 135°11'2 2.4
2017-Mar-22 04:33N 34°38' E 135°11'2 2.5
2017-Mar-22 03:33N 34°37' E 135°13'4 3.6
2017-Mar-22 02:23N 34°41' E 135°11'0 0.0
2017-Mar-22 01:29N 34°41' E 135°11'0 0.0
2017-Mar-22 00:29N 34°41' E 135°11'0 0.0
2017-Mar-21 23:29N 34°41' E 135°11'0 0.0
2017-Mar-21 22:23N 34°41' E 135°11'0 0.0
2017-Mar-21 21:29N 34°41' E 135°11'0 0.0
2017-Mar-21 20:23N 34°41' E 135°11'0 0.0
2017-Mar-21 19:29N 34°41' E 135°11'0 0.0
2017-Mar-21 18:29N 34°41' E 135°11'0 0.0
2017-Mar-21 17:29N 34°41' E 135°11'0 0.0
2017-Mar-21 16:29N 34°41' E 135°11'0 0.0
2017-Mar-21 15:29N 34°41' E 135°11'0 0.0
2017-Mar-21 14:29N 34°41' E 135°11'0 0.0
2017-Mar-21 13:29N 34°41' E 135°11'0 0.0
2017-Mar-21 12:23N 34°41' E 135°11'7 8.2
2017-Mar-21 11:33N 34°35' E 135°06'1 1.4
2017-Mar-21 10:33N 34°37' E 135°06'6 5.5
2017-Mar-21 09:30N 34°41' E 135°11'5 5.3
2017-Mar-21 08:33N 34°37' E 135°08'5 4.3
2017-Mar-21 07:24N 34°41' E 135°11'0 0.0
2017-Mar-21 06:30N 34°41' E 135°11'0 0.0
2017-Mar-21 05:30N 34°41' E 135°11'2 2.4
2017-Mar-21 04:33N 34°39' E 135°11'2 2.0
2017-Mar-21 03:33N 34°37' E 135°13'4 3.7
2017-Mar-21 02:32N 34°41' E 135°11'0 0.0
2017-Mar-21 01:32N 34°41' E 135°11'0 0.0
2017-Mar-21 00:32N 34°41' E 135°11'0 0.0
2017-Mar-20 23:32N 34°41' E 135°11'0 0.0
2017-Mar-20 22:32N 34°41' E 135°11'0 0.0
2017-Mar-20 21:32N 34°41' E 135°11'0 0.0
2017-Mar-20 20:32N 34°41' E 135°11'0 0.0
2017-Mar-20 19:32N 34°41' E 135°11'0 0.0
2017-Mar-20 18:32N 34°41' E 135°11'0 0.0
2017-Mar-20 17:26N 34°41' E 135°11'0 0.0
2017-Mar-20 16:14N 34°41' E 135°11'0 0.0
2017-Mar-20 15:32N 34°41' E 135°11'0 0.0
2017-Mar-20 14:32N 34°41' E 135°11'0 0.0
2017-Mar-20 13:32N 34°41' E 135°11'0 0.0
2017-Mar-20 12:32N 34°41' E 135°11'6 6.5
2017-Mar-20 11:33N 34°36' E 135°07'1 1.2
2017-Mar-20 10:33N 34°37' E 135°07'5 4.7
2017-Mar-20 09:25N 34°41' E 135°11'2 2.4
2017-Mar-20 08:33N 34°39' E 135°11'2 1.9
2017-Mar-20 07:33N 34°37' E 135°13'4 3.5
2017-Mar-20 06:30N 34°41' E 135°11'0 0.0
2017-Mar-20 05:30N 34°41' E 135°11'2 2.2
2017-Mar-20 04:33N 34°39' E 135°11'2 2.1
2017-Mar-20 03:34N 34°37' E 135°13'4 3.7
2017-Mar-20 02:33N 34°41' E 135°11'0 0.0
2017-Mar-20 01:33N 34°41' E 135°11'0 0.0
2017-Mar-20 00:21N 34°41' E 135°11'0 0.0
2017-Mar-19 23:27N 34°41' E 135°11'0 0.0
2017-Mar-19 22:27N 34°41' E 135°11'0 0.0
2017-Mar-19 21:33N 34°41' E 135°11'0 0.0
2017-Mar-19 20:27N 34°41' E 135°11'0 0.0
2017-Mar-19 19:33N 34°41' E 135°11'0 0.0
2017-Mar-19 18:33N 34°41' E 135°11'0 0.0
2017-Mar-19 17:33N 34°41' E 135°11'0 0.0
2017-Mar-19 16:33N 34°41' E 135°11'0 0.0
2017-Mar-19 15:21N 34°41' E 135°11'0 0.0
2017-Mar-19 14:33N 34°41' E 135°11'0 0.0
2017-Mar-19 13:27N 34°41' E 135°11'0 0.0
2017-Mar-19 12:27N 34°41' E 135°11'6 6.7
2017-Mar-19 11:33N 34°36' E 135°07'1 1.1
2017-Mar-19 10:34N 34°37' E 135°06'6 5.6
2017-Mar-19 09:31N 34°41' E 135°11'2 1.9
2017-Mar-19 08:34N 34°39' E 135°11'2 2.1
2017-Mar-19 07:33N 34°37' E 135°13'4 3.5
2017-Mar-19 06:32N 34°41' E 135°11'0 0.0
2017-Mar-19 05:26N 34°41' E 135°11'2 2.3
2017-Mar-19 04:33N 34°39' E 135°11'2 2.0
2017-Mar-19 03:33N 34°37' E 135°13'4 3.6
2017-Mar-19 02:33N 34°41' E 135°11'0 0.0
2017-Mar-19 01:33N 34°41' E 135°11'0 0.0
2017-Mar-19 00:33N 34°41' E 135°11'0 0.0
2017-Mar-18 23:33N 34°41' E 135°11'0 0.0
2017-Mar-18 22:33N 34°41' E 135°11'0 0.0
2017-Mar-18 21:33N 34°41' E 135°11'0 0.0
2017-Mar-18 20:33N 34°41' E 135°11'0 0.0
2017-Mar-18 19:09N 34°41' E 135°11'0 0.0
2017-Mar-18 18:33N 34°41' E 135°11'0 0.0
2017-Mar-18 17:33N 34°41' E 135°11'0 0.0
2017-Mar-18 16:27N 34°41' E 135°11'0 0.0
2017-Mar-18 15:15N 34°41' E 135°11'0 0.0
2017-Mar-18 14:33N 34°41' E 135°11'0 0.0
2017-Mar-18 13:33N 34°41' E 135°11'0 0.0
2017-Mar-18 12:27N 34°41' E 135°11'7 7.9
2017-Mar-18 11:34N 34°35' E 135°06'2 2.2
2017-Mar-18 10:34N 34°37' E 135°07'5 4.3
2017-Mar-18 09:23N 34°41' E 135°11'2 2.5
2017-Mar-18 08:33N 34°39' E 135°11'2 1.9
2017-Mar-18 07:33N 34°38' E 135°13'4 3.4
2017-Mar-18 06:32N 34°41' E 135°11'0 0.0
2017-Mar-18 05:32N 34°41' E 135°11'2 2.2
2017-Mar-18 04:34N 34°39' E 135°11'2 1.8
2017-Mar-18 03:33N 34°37' E 135°13'4 2.9
2017-Mar-18 02:18N 34°41' E 135°11'0 0.0
2017-Mar-18 01:30N 34°41' E 135°11'0 0.0
2017-Mar-18 00:30N 34°41' E 135°11'0 0.0
2017-Mar-17 23:30N 34°41' E 135°11'0 0.0
2017-Mar-17 22:30N 34°41' E 135°11'0 0.0
2017-Mar-17 21:30N 34°41' E 135°11'0 0.0
2017-Mar-17 20:06N 34°41' E 135°11'0 0.0
2017-Mar-17 19:30N 34°41' E 135°11'0 0.0
2017-Mar-17 18:30N 34°41' E 135°11'0 0.0
2017-Mar-17 17:24N 34°41' E 135°11'0 0.0
2017-Mar-17 16:30N 34°41' E 135°11'0 0.0
2017-Mar-17 15:30N 34°41' E 135°11'0 0.0
2017-Mar-17 14:30N 34°41' E 135°11'0 0.0
2017-Mar-17 13:30N 34°41' E 135°11'0 0.0
2017-Mar-17 12:24N 34°41' E 135°11'6 6.7
2017-Mar-17 11:33N 34°36' E 135°07'1 1.5
2017-Mar-17 10:33N 34°37' E 135°06'6 5.7
2017-Mar-17 09:30N 34°41' E 135°11'5 4.9
2017-Mar-17 08:33N 34°38' E 135°08'5 3.9
2017-Mar-17 07:23N 34°41' E 135°11'  

Dump ship's entire track history